Time;durP1;ratioP1;P1;durP2;ratioP2;P2;SDS_P1;SDS_P2;PMS_P1;PMS_P2;Temp;Humidity;BMP_temperature;BMP_pressure;BME280_temperature;BME280_humidity;BME280_pressure;Samples;Min_cycle;Max_cycle;Signal;HPM_P1;HPM_P2
2020/12/16 00:00:23;;;;;;;15.82;12.07;;;;;;;13.88;55.72;101172.84;5026810;28;97987;-68
2020/12/16 00:02:54;;;;;;;15.52;12.23;;;;;;;13.87;55.43;101167.47;5028272;28;98332;-67
2020/12/16 00:05:22;;;;;;;20.90;16.30;;;;;;;14.07;55.82;101177.19;5018610;28;97822;-69
2020/12/16 00:07:49;;;;;;;15.27;13.07;;;;;;;13.98;55.62;101177.69;5023131;28;96819;-68
2020/12/16 00:10:16;;;;;;;16.63;12.98;;;;;;;13.93;55.58;101189.78;5003424;28;97518;-69
2020/12/16 00:12:44;;;;;;;15.20;12.55;;;;;;;13.91;55.64;101188.81;5022225;28;97367;-67
2020/12/16 00:15:11;;;;;;;19.70;16.70;;;;;;;14.08;56.41;101200.16;5026244;28;97447;-69
2020/12/16 00:17:38;;;;;;;20.33;17.37;;;;;;;14.17;56.03;101198.84;5004579;28;97582;-68
2020/12/16 00:20:08;;;;;;;17.83;14.38;;;;;;;14.03;56.38;101207.88;5025390;28;97034;-69
2020/12/16 00:22:38;;;;;;;20.75;16.63;;;;;;;14.23;56.36;101208.78;5012405;27;96899;-69
2020/12/16 00:25:07;;;;;;;17.67;13.68;;;;;;;14.08;56.08;101206.38;5032674;27;97420;-68
2020/12/16 00:27:35;;;;;;;14.98;12.45;;;;;;;14.03;56.15;101213.16;5024808;27;97432;-69
2020/12/16 00:30:03;;;;;;;17.65;13.30;;;;;;;14.00;56.32;101213.00;5009081;28;99567;-70
2020/12/16 00:32:31;;;;;;;17.02;13.20;;;;;;;14.01;56.06;101209.53;5025486;28;96883;-68
2020/12/16 00:34:58;;;;;;;18.20;12.75;;;;;;;14.00;56.04;101212.09;5025295;28;96660;-69
2020/12/16 00:37:27;;;;;;;15.45;12.52;;;;;;;14.01;56.44;101217.44;5018502;28;97922;-69
2020/12/16 00:40:13;;;;;;;17.67;13.15;;;;;;;14.00;56.16;101222.66;5025891;28;97045;-67
2020/12/16 00:42:46;;;;;;;19.10;13.68;;;;;;;14.00;56.12;101220.94;5009685;28;97827;-68
2020/12/16 00:45:14;;;;;;;17.10;13.80;;;;;;;14.02;56.22;101221.91;5009132;28;96623;-69
2020/12/16 00:47:41;;;;;;;17.77;13.40;;;;;;;14.05;55.89;101226.44;5009692;28;96773;-68
2020/12/16 00:50:10;;;;;;;16.30;13.23;;;;;;;14.04;55.72;101220.25;5006397;28;98009;-68
2020/12/16 00:52:59;;;;;;;17.63;13.10;;;;;;;14.06;55.83;101231.81;5004038;28;97371;-69
2020/12/16 00:55:29;;;;;;;18.98;13.80;;;;;;;14.08;55.70;101230.13;5007955;28;97009;-68
2020/12/16 00:57:58;;;;;;;16.17;13.57;;;;;;;14.09;55.68;101242.50;5008041;28;97287;-69
2020/12/16 01:00:27;;;;;;;18.27;13.50;;;;;;;14.10;55.65;101244.28;5003779;28;101441;-68
2020/12/16 01:03:02;;;;;;;20.10;14.18;;;;;;;14.11;55.52;101242.56;5009603;28;97978;-69
2020/12/16 01:05:31;;;;;;;20.08;14.15;;;;;;;14.10;55.91;101244.28;5000822;28;97507;-69
2020/12/16 01:08:00;;;;;;;17.02;13.55;;;;;;;14.08;55.88;101253.91;5002424;28;98174;-69
2020/12/16 01:10:28;;;;;;;18.63;14.45;;;;;;;14.07;55.82;101251.16;5006097;28;96858;-69
2020/12/16 01:12:56;;;;;;;21.35;15.00;;;;;;;14.07;55.98;101256.47;5026262;28;98099;-69
2020/12/16 01:15:27;;;;;;;18.85;13.98;;;;;;;14.04;55.78;101256.31;5010312;28;97338;-69
2020/12/16 01:18:01;;;;;;;20.33;14.18;;;;;;;14.01;56.05;101262.34;5008344;28;96781;-69
2020/12/16 01:20:38;;;;;;;19.50;14.27;;;;;;;14.00;55.96;101275.50;5009334;28;96946;-69
2020/12/16 01:23:34;;;;;;;18.52;14.43;;;;;;;13.96;55.81;101274.44;5008193;28;98079;-68
2020/12/16 01:26:02;;;;;;;20.30;14.02;;;;;;;13.93;56.18;101273.41;5008280;28;97425;-69
2020/12/16 01:28:35;;;;;;;21.58;14.75;;;;;;;13.91;56.10;101275.97;5004077;28;96843;-69
2020/12/16 01:31:07;;;;;;;22.98;15.18;;;;;;;13.92;56.12;101277.78;5006813;28;98284;-68
2020/12/16 01:33:34;;;;;;;24.15;15.43;;;;;;;13.92;56.33;101276.91;5025278;28;98998;-68
2020/12/16 01:36:10;;;;;;;24.10;15.38;;;;;;;13.90;56.27;101279.44;5026556;28;97490;-69
2020/12/16 01:38:39;;;;;;;21.45;14.35;;;;;;;13.87;56.40;101281.94;5005093;28;96820;-68
2020/12/16 01:41:07;;;;;;;23.75;14.82;;;;;;;13.86;56.61;101287.16;5007143;28;97487;-68
2020/12/16 01:43:41;;;;;;;25.38;16.10;;;;;;;13.85;56.63;101286.25;5004982;28;99313;-70
2020/12/16 01:46:15;;;;;;;26.20;15.15;;;;;;;13.84;56.39;101281.81;5025130;27;97186;-68
2020/12/16 01:49:02;;;;;;;25.55;14.98;;;;;;;13.81;56.55;101289.56;5020785;28;97206;-69
2020/12/16 01:51:29;;;;;;;30.55;16.35;;;;;;;13.81;56.78;101286.91;5026310;28;98000;-70
2020/12/16 01:54:01;;;;;;;25.50;15.52;;;;;;;13.80;56.67;101287.75;5004131;28;97443;-70
2020/12/16 01:56:29;;;;;;;26.45;15.88;;;;;;;13.82;56.63;101285.19;5022296;28;96926;-69
2020/12/16 01:59:10;;;;;;;24.13;16.10;;;;;;;13.82;56.73;101286.09;5002611;28;97289;-68
2020/12/16 02:01:42;;;;;;;25.55;15.85;;;;;;;13.83;56.43;101281.75;5002132;28;97889;-70
2020/12/16 02:04:12;;;;;;;26.00;15.48;;;;;;;13.86;56.61;101287.16;5002834;28;99532;-70
2020/12/16 02:06:41;;;;;;;27.27;16.45;;;;;;;13.84;56.62;101292.38;5026941;28;96701;-70
2020/12/16 02:09:11;;;;;;;28.00;15.02;;;;;;;13.86;56.58;101303.00;5023759;28;97206;-70
2020/12/16 02:11:48;;;;;;;23.63;15.32;;;;;;;13.85;56.64;101307.38;5006178;28;98513;-70
2020/12/16 02:14:22;;;;;;;27.95;16.40;;;;;;;13.82;56.45;101309.88;4999650;28;97775;-69
2020/12/16 02:16:54;;;;;;;23.45;15.02;;;;;;;13.82;56.37;101307.22;4996873;28;97364;-69
2020/12/16 02:19:23;;;;;;;27.27;14.85;;;;;;;13.80;56.78;101308.88;5005926;28;96901;-69
2020/12/16 02:22:10;;;;;;;24.60;15.30;;;;;;;13.78;56.46;101307.91;5004567;28;99220;-69
2020/12/16 02:24:41;;;;;;;25.52;14.40;;;;;;;13.75;56.63;101305.13;5025901;28;97938;-70
2020/12/16 02:27:11;;;;;;;21.38;13.55;;;;;;;13.77;56.62;101315.75;5009497;28;97179;-67
2020/12/16 02:29:38;;;;;;;26.90;16.40;;;;;;;13.79;56.88;101307.09;5009994;28;97343;-67
2020/12/16 02:32:24;;;;;;;22.90;15.25;;;;;;;13.81;56.47;101304.53;5011896;28;96892;-66
2020/12/16 02:34:52;;;;;;;24.70;14.50;;;;;;;13.82;56.65;101307.22;4994980;28;100097;-68
2020/12/16 02:37:20;;;;;;;22.25;14.35;;;;;;;13.86;56.73;101298.63;5027398;28;97266;-67
2020/12/16 02:39:48;;;;;;;24.10;15.02;;;;;;;13.92;56.54;101292.75;5010018;28;97151;-68
2020/12/16 02:42:22;;;;;;;28.98;15.48;;;;;;;13.92;56.32;101293.63;5006343;28;98038;-68
2020/12/16 02:44:51;;;;;;;25.33;15.13;;;;;;;13.93;56.25;101298.09;5024876;28;97963;-68
2020/12/16 02:47:27;;;;;;;23.75;14.02;;;;;;;13.95;56.51;101299.06;4999263;28;97269;-67
2020/12/16 02:49:55;;;;;;;25.15;14.80;;;;;;;13.99;56.16;101305.41;5003690;28;97089;-69
2020/12/16 02:52:23;;;;;;;24.17;14.60;;;;;;;14.01;56.29;101299.34;4999332;28;97236;-68
2020/12/16 02:54:52;;;;;;;24.63;14.45;;;;;;;14.02;56.49;101306.44;5002374;28;98890;-69
2020/12/16 02:57:40;;;;;;;23.20;14.07;;;;;;;14.02;56.47;101311.72;5006613;28;97341;-69
2020/12/16 03:00:08;;;;;;;25.48;14.88;;;;;;;14.03;56.07;101313.53;5004458;28;97148;-69
2020/12/16 03:03:09;;;;;;;24.80;14.70;;;;;;;14.05;56.02;101322.44;4983724;28;98045;-68
2020/12/16 03:06:15;;;;;;;23.98;14.43;;;;;;;14.04;56.35;101315.34;4960616;28;98497;-69
2020/12/16 03:08:57;;;;;;;23.40;14.68;;;;;;;14.06;56.01;101318.97;4999962;28;97237;-68
2020/12/16 03:11:27;;;;;;;25.60;14.82;;;;;;;14.07;56.34;101320.78;5026508;27;96845;-70
2020/12/16 03:13:56;;;;;;;22.95;15.02;;;;;;;14.08;56.22;101326.97;5003727;28;98693;-68
2020/12/16 03:16:24;;;;;;;24.30;14.65;;;;;;;14.08;56.21;101329.63;5007547;28;100771;-68
2020/12/16 03:19:02;;;;;;;26.13;14.70;;;;;;;14.09;56.18;101334.06;5006223;28;97282;-68
2020/12/16 03:21:30;;;;;;;30.13;14.60;;;;;;;14.07;56.25;101331.34;5006436;28;97147;-68
2020/12/16 03:24:11;;;;;;;25.63;13.82;;;;;;;14.05;56.05;101340.94;5010281;28;98142;-68
2020/12/16 03:26:57;;;;;;;22.50;14.18;;;;;;;14.05;56.21;101340.94;5028855;28;97967;-68
2020/12/16 03:29:44;;;;;;;20.13;13.00;;;;;;;14.05;56.09;101342.69;5026234;28;97106;-68
2020/12/16 03:32:35;;;;;;;25.33;14.77;;;;;;;14.05;56.28;101342.69;5006816;28;97040;-68
2020/12/16 03:35:16;;;;;;;22.98;14.73;;;;;;;14.05;56.11;101353.25;5003505;28;97614;-68
2020/12/16 03:37:44;;;;;;;26.08;14.98;;;;;;;14.03;56.41;101350.53;5004153;28;99180;-69
2020/12/16 03:40:12;;;;;;;27.02;15.35;;;;;;;14.03;56.45;101347.88;5010474;28;97380;-69
2020/12/16 03:42:49;;;;;;;22.88;13.38;;;;;;;14.02;56.47;101346.06;5008002;28;97559;-69
2020/12/16 03:45:17;;;;;;;27.48;15.23;;;;;;;14.02;56.38;101354.00;5009748;28;96835;-68
2020/12/16 03:47:46;;;;;;;22.60;13.90;;;;;;;14.02;56.04;101347.81;5011116;28;99031;-68
2020/12/16 03:50:15;;;;;;;24.17;14.40;;;;;;;14.02;56.12;101348.72;5003409;28;97187;-68
2020/12/16 03:52:43;;;;;;;24.58;14.52;;;;;;;14.02;55.99;101361.94;5005264;28;96940;-69
2020/12/16 03:55:36;;;;;;;27.30;15.35;;;;;;;14.02;56.04;101363.66;5023147;28;98500;-69
2020/12/16 03:58:31;;;;;;;24.55;14.30;;;;;;;14.00;56.20;101360.94;5008528;28;99003;-68
2020/12/16 04:01:20;;;;;;;30.98;18.40;;;;;;;13.99;56.35;101359.16;5012914;28;97334;-69
2020/12/16 04:04:06;;;;;;;23.75;15.07;;;;;;;13.98;56.03;101362.59;5006465;28;96803;-69
2020/12/16 04:06:55;;;;;;;21.70;13.65;;;;;;;13.92;56.34;101364.94;5025256;28;98117;-69
2020/12/16 04:09:27;;;;;;;22.77;14.13;;;;;;;13.89;56.44;101370.09;5021401;22;97560;-74
2020/12/16 04:11:59;;;;;;;24.42;14.63;;;;;;;13.85;56.43;101369.88;5007840;28;96863;-76
2020/12/16 04:14:32;;;;;;;21.15;14.25;;;;;;;13.80;56.43;101374.91;5006976;28;96991;-77
2020/12/16 04:17:03;;;;;;;21.13;12.85;;;;;;;13.77;56.83;101376.50;5004609;28;98124;-76
2020/12/16 04:19:49;;;;;;;22.85;13.38;;;;;;;13.74;56.65;101377.25;5024099;28;99045;-76
2020/12/16 04:22:17;;;;;;;20.90;13.55;;;;;;;13.75;56.74;101380.78;5015533;28;96806;-73
2020/12/16 04:24:56;;;;;;;21.63;13.88;;;;;;;13.74;56.79;101395.72;5026438;27;96817;-76
2020/12/16 04:27:28;;;;;;;24.25;14.43;;;;;;;13.72;56.78;101392.09;5009919;28;98459;-76
2020/12/16 04:29:57;;;;;;;25.52;15.23;;;;;;;13.73;56.93;101396.56;5019149;28;97943;-77
2020/12/16 04:32:28;;;;;;;24.10;15.18;;;;;;;13.77;56.85;101398.53;5015489;27;96814;-77
2020/12/16 04:34:55;;;;;;;21.65;14.32;;;;;;;13.78;57.04;101394.13;5014928;28;97109;-75
2020/12/16 04:37:23;;;;;;;22.13;14.27;;;;;;;13.81;56.88;101396.94;5011319;27;97931;-77
2020/12/16 04:39:56;;;;;;;25.38;15.13;;;;;;;13.83;56.53;101397.94;5019283;28;98247;-77
2020/12/16 04:42:25;;;;;;;24.17;15.18;;;;;;;13.83;56.74;101392.66;5017224;28;97325;-76
2020/12/16 04:44:54;;;;;;;23.27;14.77;;;;;;;13.86;56.53;101408.63;5033366;27;97066;-78
2020/12/16 04:47:28;;;;;;;23.75;14.52;;;;;;;13.85;56.44;101410.38;5012567;28;97863;-76
2020/12/16 04:50:06;;;;;;;22.13;14.32;;;;;;;13.86;56.73;101404.28;5012468;28;97929;-76
2020/12/16 04:52:48;;;;;;;28.73;16.13;;;;;;;13.88;56.53;101399.97;5016642;28;97505;-77
2020/12/16 04:55:20;;;;;;;26.38;15.02;;;;;;;13.90;56.65;101405.34;5029137;27;97255;-78
2020/12/16 04:58:10;;;;;;;23.70;13.85;;;;;;;13.90;56.38;101400.94;5015354;28;98139;-77
2020/12/16 05:00:39;;;;;;;23.92;14.40;;;;;;;13.90;56.64;101411.50;5012749;28;98180;-77
2020/12/16 05:03:30;;;;;;;31.17;14.88;;;;;;;13.91;56.49;101402.75;5024981;27;96929;-77
2020/12/16 05:06:37;;;;;;;25.27;15.38;;;;;;;13.91;56.33;101408.03;5017245;28;97212;-79
2020/12/16 05:09:07;;;;;;;24.05;15.75;;;;;;;13.91;56.29;101415.06;5023350;27;97936;-76
2020/12/16 05:11:37;;;;;;;25.45;16.63;;;;;;;13.92;56.59;101408.97;5027460;27;100964;-76
2020/12/16 05:14:24;;;;;;;23.25;15.23;;;;;;;13.92;56.23;101412.47;5023051;27;96697;-77
2020/12/16 05:17:01;;;;;;;24.17;15.25;;;;;;;13.89;56.66;101422.91;5027611;28;97044;-77
2020/12/16 05:19:35;;;;;;;26.60;16.40;;;;;;;13.89;56.48;101420.25;5025609;27;98306;-77
2020/12/16 05:22:25;;;;;;;25.13;16.15;;;;;;;13.88;56.41;101426.41;5008296;28;96825;-76
2020/12/16 05:24:54;;;;;;;24.27;15.40;;;;;;;13.89;56.46;101416.72;5025149;27;96943;-77
2020/12/16 05:27:24;;;;;;;25.60;15.90;;;;;;;13.85;56.56;101426.22;5027445;27;96666;-76
2020/12/16 05:29:54;;;;;;;25.48;15.82;;;;;;;13.83;56.46;101427.00;5025972;27;98199;-76
2020/12/16 05:32:24;;;;;;;25.33;16.70;;;;;;;13.82;56.39;101428.72;5026866;27;99009;-77
2020/12/16 05:34:53;;;;;;;24.58;16.08;;;;;;;13.83;56.33;101438.44;5027720;27;96615;-78
2020/12/16 05:37:32;;;;;;;26.02;16.13;;;;;;;13.82;56.39;101439.28;5025650;27;97052;-76
2020/12/16 05:40:09;;;;;;;28.65;15.85;;;;;;;13.82;56.43;101456.84;5025624;28;97758;-76
2020/12/16 05:42:37;;;;;;;25.02;16.33;;;;;;;13.80;56.44;101454.13;5013766;28;100524;-75
2020/12/16 05:45:13;;;;;;;24.95;15.77;;;;;;;13.76;56.59;101452.16;5026870;28;97219;-74
2020/12/16 05:47:41;;;;;;;25.75;16.33;;;;;;;13.76;56.73;101460.09;5025161;28;97226;-75
2020/12/16 05:50:41;;;;;;;26.25;16.25;;;;;;;13.74;56.72;101458.22;5026176;27;97277;-73
2020/12/16 05:53:17;;;;;;;25.42;16.38;;;;;;;13.73;57.00;101459.94;5026380;28;98961;-73
2020/12/16 05:55:55;;;;;;;25.33;16.17;;;;;;;13.73;56.95;101457.28;5011665;28;96704;-73
2020/12/16 05:58:24;;;;;;;22.65;16.17;;;;;;;13.75;56.75;101466.22;5026487;28;97017;-73
2020/12/16 06:00:54;;;;;;;27.27;17.02;;;;;;;13.78;56.93;101469.00;5026913;28;97926;-73
2020/12/16 06:03:28;;;;;;;27.25;16.92;;;;;;;13.76;56.97;101470.66;5026006;27;100973;-75
2020/12/16 06:05:58;;;;;;;26.48;16.40;;;;;;;13.75;56.74;101468.84;5022802;28;97124;-74
2020/12/16 06:08:29;;;;;;;25.40;16.63;;;;;;;13.76;56.54;101469.72;5026995;27;97231;-74
2020/12/16 06:10:57;;;;;;;23.33;16.27;;;;;;;13.77;56.62;101474.22;5022819;27;96988;-74
2020/12/16 06:13:25;;;;;;;26.05;17.48;;;;;;;13.78;56.63;101473.34;5025173;27;99137;-74
2020/12/16 06:15:57;;;;;;;28.98;17.70;;;;;;;13.77;56.67;101482.13;5022966;28;96910;-74
2020/12/16 06:18:27;;;;;;;26.60;16.85;;;;;;;13.74;56.88;101480.22;5026080;27;97152;-74
2020/12/16 06:20:56;;;;;;;25.75;16.40;;;;;;;13.74;56.79;101482.84;5026426;28;98986;-74
2020/12/16 06:23:30;;;;;;;27.25;17.88;;;;;;;13.72;56.93;101489.78;5025282;27;97852;-70
2020/12/16 06:26:10;;;;;;;27.77;16.33;;;;;;;13.71;57.16;101488.00;5019387;27;96748;-74
2020/12/16 06:28:37;;;;;;;30.00;18.17;;;;;;;13.72;56.97;101486.28;5025455;27;97065;-75
2020/12/16 06:31:23;;;;;;;27.52;17.27;;;;;;;13.70;56.85;101491.47;5011637;28;99076;-74
2020/12/16 06:33:56;;;;;;;26.05;17.23;;;;;;;13.70;56.94;101491.47;5021937;28;98115;-73
2020/12/16 06:36:29;;;;;;;28.73;18.15;;;;;;;13.73;57.24;101496.00;5025443;28;97238;-75
2020/12/16 06:38:58;;;;;;;27.75;17.98;;;;;;;13.75;56.88;101492.63;5024883;27;96944;-74
2020/12/16 06:41:27;;;;;;;31.55;18.73;;;;;;;13.78;56.92;101492.75;5020660;28;98006;-73
2020/12/16 06:43:55;;;;;;;27.30;18.98;;;;;;;13.79;56.95;101493.69;5018532;27;98570;-70
2020/12/16 06:46:43;;;;;;;25.08;16.90;;;;;;;13.81;56.74;101498.19;5023529;28;97297;-72
2020/12/16 06:49:29;;;;;;;26.05;17.27;;;;;;;13.79;57.21;101497.25;5024920;27;97174;-73
2020/12/16 06:52:00;;;;;;;25.88;17.00;;;;;;;13.82;57.08;101500.03;5022334;27;98178;-74
2020/12/16 06:54:41;;;;;;;28.30;18.13;;;;;;;13.82;56.85;101496.47;5022419;27;97990;-73
2020/12/16 06:57:13;;;;;;;30.42;17.52;;;;;;;13.81;56.84;101498.19;5021053;28;97914;-70
2020/12/16 06:59:49;;;;;;;32.45;17.27;;;;;;;13.80;57.04;101499.03;5028068;27;96869;-70
2020/12/16 07:02:24;;;;;;;31.83;17.60;;;;;;;13.80;56.68;101504.31;5025865;27;99118;-73
2020/12/16 07:04:51;;;;;;;31.85;16.85;;;;;;;13.80;56.55;101500.75;5027088;27;97786;-73
2020/12/16 07:07:42;;;;;;;30.70;17.00;;;;;;;13.77;57.03;101504.16;5024432;28;97481;-72
2020/12/16 07:10:52;;;;;;;25.67;16.48;;;;;;;13.79;56.80;101517.44;5023079;28;97397;-74
2020/12/16 07:13:25;;;;;;;29.13;15.93;;;;;;;13.77;56.78;101517.38;5021599;28;99268;-75
2020/12/16 07:15:55;;;;;;;32.00;16.73;;;;;;;13.77;57.09;101519.09;5026752;27;97910;-73
2020/12/16 07:18:40;;;;;;;25.00;15.65;;;;;;;13.75;57.04;101513.75;5026356;27;97394;-73
2020/12/16 07:21:24;;;;;;;27.05;16.23;;;;;;;13.76;56.72;101507.63;5022934;28;97272;-73
2020/12/16 07:24:07;;;;;;;25.48;17.70;;;;;;;13.78;56.85;101503.31;5025320;27;99118;-74
2020/12/16 07:26:48;;;;;;;31.13;17.75;;;;;;;13.80;56.64;101496.38;5022809;27;97903;-72
2020/12/16 07:29:30;;;;;;;30.33;18.65;;;;;;;13.77;56.77;101493.59;5024451;28;97395;-74
2020/12/16 07:32:08;;;;;;;26.23;16.75;;;;;;;13.78;56.74;101492.75;5024451;28;97057;-75
2020/12/16 07:34:45;;;;;;;31.92;20.00;;;;;;;13.74;56.73;101497.81;5021975;27;97911;-72
2020/12/16 07:37:13;;;;;;;27.90;18.75;;;;;;;13.75;56.89;101510.19;5027217;27;98993;-72
2020/12/16 07:39:49;;;;;;;26.20;18.70;;;;;;;13.74;56.93;101506.63;5024063;27;97823;-74
2020/12/16 07:42:22;;;;;;;31.65;18.42;;;;;;;13.74;56.89;101501.34;5020956;27;97418;-73
2020/12/16 07:44:54;;;;;;;29.80;17.58;;;;;;;13.74;56.67;101506.63;5025476;28;101798;-73
2020/12/16 07:47:21;;;;;;;30.95;18.83;;;;;;;13.73;57.04;101499.53;5010187;28;98071;-73
2020/12/16 07:49:48;;;;;;;27.40;18.50;;;;;;;13.73;56.99;101496.91;5009793;28;97100;-73
2020/12/16 07:52:16;;;;;;;27.50;17.38;;;;;;;13.72;56.92;101491.56;5027703;27;96841;-73
2020/12/16 07:54:44;;;;;;;25.90;17.50;;;;;;;13.71;56.90;101493.28;5023585;27;99075;-73
2020/12/16 07:57:13;;;;;;;30.08;17.30;;;;;;;13.69;56.84;101499.28;5025566;27;97853;-73
2020/12/16 07:59:40;;;;;;;34.17;18.80;;;;;;;13.70;56.67;101494.13;5020381;28;97241;-72
2020/12/16 08:02:09;;;;;;;36.35;20.27;;;;;;;13.69;56.79;101494.94;5026457;27;96799;-72
2020/12/16 08:04:38;;;;;;;28.83;17.60;;;;;;;13.67;57.03;101496.56;5011385;28;99520;-71
2020/12/16 08:07:14;;;;;;;30.58;18.02;;;;;;;13.66;56.92;101494.78;5024618;28;98017;-74
2020/12/16 08:09:52;;;;;;;27.10;16.73;;;;;;;13.64;57.16;101499.06;5020832;27;97198;-73
2020/12/16 08:12:22;;;;;;;28.80;16.75;;;;;;;13.62;56.91;101498.06;5025909;27;97355;-72
2020/12/16 08:14:49;;;;;;;34.17;18.73;;;;;;;13.63;57.21;101489.31;5017173;27;98421;-75
2020/12/16 08:17:17;;;;;;;31.52;17.63;;;;;;;13.63;57.22;101499.00;5010030;28;97876;-74
2020/12/16 08:19:45;;;;;;;29.90;16.92;;;;;;;13.62;57.09;101503.34;5023902;27;96922;-74
2020/12/16 08:22:15;;;;;;;40.55;17.77;;;;;;;13.62;56.94;101508.63;5023242;28;99124;-72
2020/12/16 08:24:43;;;;;;;36.53;17.60;;;;;;;13.63;56.93;101509.56;5018721;28;97217;-75
2020/12/16 08:27:19;;;;;;;34.63;16.73;;;;;;;13.64;57.07;101514.91;5022440;28;98034;-75
2020/12/16 08:29:48;;;;;;;31.00;18.58;;;;;;;13.65;56.79;101513.19;5019800;27;97326;-74
2020/12/16 08:32:22;;;;;;;33.13;18.38;;;;;;;13.65;57.05;101518.47;5023155;27;97459;-73
2020/12/16 08:34:50;;;;;;;29.08;17.23;;;;;;;13.63;57.05;101526.28;5019108;28;97632;-74
2020/12/16 08:37:18;;;;;;;35.00;18.60;;;;;;;13.67;57.07;101530.91;5019530;27;98011;-77
2020/12/16 08:39:46;;;;;;;34.88;18.25;;;;;;;13.68;57.16;101534.47;5032237;27;97277;-75
2020/12/16 08:42:22;;;;;;;31.02;17.95;;;;;;;13.68;57.06;101540.66;5023638;27;97378;-74
2020/12/16 08:44:51;;;;;;;37.20;18.30;;;;;;;13.70;56.98;101549.56;5006591;28;98589;-74
2020/12/16 08:47:25;;;;;;;31.02;19.00;;;;;;;13.73;56.65;101546.16;5018979;27;99360;-74
2020/12/16 08:49:53;;;;;;;30.65;18.65;;;;;;;13.76;56.88;101539.31;5017829;27;97083;-75
2020/12/16 08:52:21;;;;;;;33.00;20.25;;;;;;;13.76;56.68;101544.59;5026382;27;96818;-72
2020/12/16 08:54:48;;;;;;;32.33;19.45;;;;;;;13.77;56.88;101546.41;5011871;28;99469;-72
2020/12/16 08:57:32;;;;;;;31.02;18.88;;;;;;;13.77;56.94;101553.44;5026480;28;98273;-73
2020/12/16 09:00:07;;;;;;;31.15;19.05;;;;;;;13.77;56.58;101556.97;5021126;27;97436;-73
2020/12/16 09:02:35;;;;;;;29.02;17.45;;;;;;;13.82;56.56;101567.78;5022365;27;97333;-74
2020/12/16 09:05:03;;;;;;;32.30;18.58;;;;;;;13.81;56.87;101569.50;5020182;27;97504;-75
2020/12/16 09:07:30;;;;;;;31.17;18.27;;;;;;;13.82;56.82;101565.13;5007298;28;99241;-73
2020/12/16 09:09:58;;;;;;;30.90;19.13;;;;;;;13.85;56.85;101571.47;5018908;27;97377;-74
2020/12/16 09:12:26;;;;;;;28.05;18.10;;;;;;;13.85;56.44;101568.84;5021680;28;97471;-74
2020/12/16 09:14:55;;;;;;;27.58;18.00;;;;;;;13.87;56.49;101574.19;5021084;28;100442;-75
2020/12/16 09:17:23;;;;;;;25.77;17.25;;;;;;;13.87;56.57;101576.84;5020960;27;97847;-75
2020/12/16 09:19:51;;;;;;;31.60;19.25;;;;;;;13.88;56.87;101581.31;5014389;27;97339;-76
2020/12/16 09:22:22;;;;;;;33.15;18.83;;;;;;;13.88;56.47;101576.03;5019099;28;97083;-75
2020/12/16 09:24:49;;;;;;;29.17;18.98;;;;;;;13.88;56.46;101573.38;5008380;28;99239;-75
2020/12/16 09:27:17;;;;;;;27.73;18.42;;;;;;;13.89;56.46;101581.38;5017780;27;98068;-78
2020/12/16 09:29:47;;;;;;;26.50;17.58;;;;;;;13.92;56.47;101578.00;5016808;28;96975;-73
2020/12/16 09:32:17;;;;;;;25.40;17.48;;;;;;;13.94;56.56;101579.88;5005066;27;98764;-72
2020/12/16 09:34:47;;;;;;;28.27;17.98;;;;;;;13.97;56.61;101581.78;5019948;27;99216;-74
2020/12/16 09:37:17;;;;;;;29.15;18.90;;;;;;;13.99;56.35;101577.50;5013774;28;97789;-73
2020/12/16 09:39:46;;;;;;;28.63;17.88;;;;;;;14.01;56.44;101589.06;5011326;28;98304;-72
2020/12/16 09:42:15;;;;;;;28.63;17.63;;;;;;;14.04;56.29;101582.19;5007388;28;97431;-73
2020/12/16 09:44:43;;;;;;;25.77;17.58;;;;;;;14.07;56.61;101584.97;5004484;28;99334;-73
2020/12/16 09:47:21;;;;;;;27.25;18.10;;;;;;;14.07;56.27;101579.69;5019723;28;98916;-73
2020/12/16 09:49:59;;;;;;;25.90;18.02;;;;;;;14.08;56.51;101578.88;5013659;28;97173;-73
2020/12/16 09:52:30;;;;;;;31.67;17.33;;;;;;;14.11;56.14;101576.41;5012650;28;97339;-70
2020/12/16 09:54:58;;;;;;;32.13;17.85;;;;;;;14.13;56.21;101582.66;5015281;27;97923;-73
2020/12/16 09:57:25;;;;;;;32.80;20.33;;;;;;;14.14;56.11;101573.91;5020075;27;99275;-73
2020/12/16 09:59:57;;;;;;;35.95;18.77;;;;;;;14.16;56.19;101580.16;5021160;27;97613;-73
2020/12/16 10:02:24;;;;;;;33.95;19.23;;;;;;;14.20;56.25;101584.78;5019224;28;97280;-73
2020/12/16 10:04:51;;;;;;;31.05;18.23;;;;;;;14.23;56.13;101581.41;5014696;28;99186;-73
2020/12/16 10:07:20;;;;;;;34.97;18.55;;;;;;;14.23;56.12;101582.28;5004650;27;99042;-74
2020/12/16 10:09:54;;;;;;;29.70;17.98;;;;;;;14.25;56.08;101580.63;5015477;28;97354;-74
2020/12/16 10:12:22;;;;;;;34.13;19.67;;;;;;;14.28;56.33;101569.38;5015529;28;98284;-74
2020/12/16 10:14:50;;;;;;;33.78;20.30;;;;;;;14.31;55.90;101566.88;5016344;27;97185;-72
2020/12/16 10:17:20;;;;;;;34.47;20.13;;;;;;;14.35;56.29;101567.94;5016883;27;97096;-73
2020/12/16 10:19:48;;;;;;;42.20;23.08;;;;;;;14.38;55.95;101570.75;5015236;28;97490;-73
2020/12/16 10:22:16;;;;;;;43.58;21.55;;;;;;;14.43;56.07;101566.59;5017046;27;97263;-73
2020/12/16 10:24:44;;;;;;;36.13;20.30;;;;;;;14.50;55.65;101561.69;5013090;27;100893;-73
2020/12/16 10:27:11;;;;;;;35.92;20.90;;;;;;;14.57;55.70;101562.88;5014425;28;97717;-73
2020/12/16 10:29:39;;;;;;;31.75;20.05;;;;;;;14.63;55.60;101573.78;5013196;28;97619;-73
2020/12/16 10:32:06;;;;;;;33.83;20.17;;;;;;;14.69;55.55;101568.81;5014149;27;97948;-75
2020/12/16 10:34:34;;;;;;;26.90;18.85;;;;;;;14.74;55.55;101559.34;5006830;28;98321;-73
2020/12/16 10:37:02;;;;;;;32.92;19.92;;;;;;;14.80;55.22;101562.25;5016853;28;98940;-73
2020/12/16 10:39:29;;;;;;;39.40;22.48;;;;;;;14.82;55.21;101557.97;5019242;27;98213;-73
2020/12/16 10:41:58;;;;;;;35.15;22.60;;;;;;;14.83;55.22;101551.84;5021313;27;98045;-74
2020/12/16 10:44:26;;;;;;;36.70;23.20;;;;;;;14.84;55.17;101551.00;5021518;27;102534;-75
2020/12/16 10:46:54;;;;;;;38.58;23.25;;;;;;;14.81;55.20;101545.59;5025119;28;98080;-75
2020/12/16 10:49:40;;;;;;;33.42;21.55;;;;;;;14.81;55.26;101542.94;5024268;28;97038;-74
2020/12/16 10:52:08;;;;;;;34.22;19.50;;;;;;;14.82;55.68;101544.72;5025928;28;97438;-73
2020/12/16 10:54:36;;;;;;;31.95;19.50;;;;;;;14.78;55.37;101543.69;5024263;27;99055;-74
2020/12/16 10:57:04;;;;;;;46.47;22.45;;;;;;;14.78;55.33;101542.81;5007032;28;99157;-74
2020/12/16 10:59:32;;;;;;;31.55;18.73;;;;;;;14.79;55.79;101534.00;5024172;27;96927;-75
2020/12/16 11:02:11;;;;;;;29.13;18.92;;;;;;;14.80;55.65;101530.53;5020812;28;97590;-75
2020/12/16 11:04:38;;;;;;;29.98;19.30;;;;;;;14.80;55.79;101531.44;5025050;28;99031;-76
2020/12/16 11:07:08;;;;;;;34.78;20.48;;;;;;;14.77;55.64;101533.94;5007820;28;99182;-75
2020/12/16 11:09:35;;;;;;;34.45;19.52;;;;;;;14.77;55.89;101533.03;5017946;27;97073;-74
2020/12/16 11:12:03;;;;;;;33.08;19.80;;;;;;;14.75;55.61;101530.31;5022789;28;96891;-74
2020/12/16 11:14:30;;;;;;;30.17;18.77;;;;;;;14.77;55.52;101530.38;5023768;27;98187;-74
2020/12/16 11:16:58;;;;;;;34.22;18.60;;;;;;;14.75;55.47;101532.03;5022558;27;98165;-76
2020/12/16 11:19:26;;;;;;;33.83;19.77;;;;;;;14.74;55.66;101538.19;5023696;27;97445;-74
2020/12/16 11:21:54;;;;;;;30.08;18.95;;;;;;;14.75;55.70;101540.91;5020588;27;96841;-74
2020/12/16 11:24:22;;;;;;;32.47;19.05;;;;;;;14.82;55.55;101544.72;5005869;28;98634;-73
2020/12/16 11:27:08;;;;;;;34.65;18.83;;;;;;;14.87;55.52;101546.75;5023124;27;97571;-75
2020/12/16 11:29:36;;;;;;;30.10;18.48;;;;;;;14.93;55.37;101544.44;5024884;27;97172;-74
2020/12/16 11:32:04;;;;;;;34.80;20.45;;;;;;;14.97;55.10;101546.38;5021175;28;96681;-72
2020/12/16 11:34:33;;;;;;;35.88;20.33;;;;;;;15.02;55.18;101541.31;5021090;27;99126;-74